Terminal Aerodrome Forecast
Issued by NWS Salt Lake City, UT

Home | Current Version | Previous Version | Text Only | Print | Product List | Glossary On
Versions: 1 2 3 4 5 6 7 8 9 10 11 12 13 14 15
000
FTUS45 KSLC 210539
TAFCDC
TAF
KCDC 210539Z 2106/2206 VRB05KT P6SM SCT140
     FM211800 21014G20KT P6SM SCT070 SCT120
     FM220300 19008KT P6SM SCT070 SCT150=

USA.gov is the U.S. government's official web portal to all federal, state and local government web resources and services.